Time;durP1;ratioP1;P1;durP2;ratioP2;P2;SDS_P1;SDS_P2;PMS_P1;PMS_P2;Temp;Humidity;BMP_temperature;BMP_pressure;BME280_temperature;BME280_humidity;BME280_pressure;Samples;Min_cycle;Max_cycle;Signal;HPM_P1;HPM_P2
2022/07/09 00:02:11;;;;;;;11.00;3.08;;;16.90;99.90;;;;;;4978615;28;20521;-91
2022/07/09 00:04:57;;;;;;;16.30;4.22;;;16.90;99.90;;;;;;4994100;28;20054;-91
2022/07/09 00:07:44;;;;;;;12.73;4.47;;;16.90;99.90;;;;;;4996713;28;20069;-89
2022/07/09 00:10:30;;;;;;;12.23;3.80;;;16.90;99.90;;;;;;4992952;28;20498;-90
2022/07/09 00:13:17;;;;;;;12.95;5.03;;;16.90;99.90;;;;;;4992380;28;20049;-87
2022/07/09 00:16:03;;;;;;;13.40;4.78;;;16.90;99.90;;;;;;4994114;28;20112;-90
2022/07/09 00:18:49;;;;;;;14.55;5.43;;;16.90;99.90;;;;;;4979912;28;20109;-90
2022/07/09 00:21:35;;;;;;;11.35;4.93;;;16.90;99.90;;;;;;4984871;28;20073;-92
2022/07/09 00:24:21;;;;;;;17.73;5.57;;;17.00;99.90;;;;;;4963326;28;20057;-94
2022/07/09 00:27:07;;;;;;;10.00;4.40;;;17.00;99.90;;;;;;4997169;28;20049;-90
2022/07/09 00:29:53;;;;;;;12.82;4.95;;;17.00;99.90;;;;;;4976309;28;20521;-90
2022/07/09 00:32:39;;;;;;;16.98;5.18;;;17.00;99.90;;;;;;4992790;28;20455;-88
2022/07/09 00:35:26;;;;;;;20.58;5.82;;;17.00;99.90;;;;;;4964059;28;20050;-89
2022/07/09 00:38:13;;;;;;;17.42;4.85;;;17.00;99.90;;;;;;4979251;28;20058;-92
2022/07/09 00:40:59;;;;;;;12.57;4.97;;;17.00;99.90;;;;;;4975498;28;20046;-91
2022/07/09 00:43:50;;;;;;;13.25;4.65;;;17.00;99.90;;;;;;4975468;28;20137;-90
2022/07/09 00:46:36;;;;;;;11.50;4.85;;;17.10;99.90;;;;;;4961961;28;20046;-90
2022/07/09 00:49:22;;;;;;;13.18;3.88;;;17.00;99.90;;;;;;4992105;28;20453;-91
2022/07/09 00:52:12;;;;;;;12.60;4.07;;;17.10;99.90;;;;;;4936632;28;1204074;-89
2022/07/09 00:55:02;;;;;;;12.90;3.75;;;17.10;99.90;;;;;;4981051;28;20495;-90
2022/07/09 00:57:49;;;;;;;22.58;6.05;;;17.10;99.90;;;;;;4994824;28;20054;-90
2022/07/09 01:00:35;;;;;;;13.93;4.03;;;17.10;99.90;;;;;;4984658;28;20057;-89
2022/07/09 01:03:21;;;;;;;14.27;3.85;;;17.10;99.90;;;;;;4962958;28;20066;-87
2022/07/09 01:06:07;;;;;;;14.88;4.68;;;17.10;99.90;;;;;;4985472;28;20069;-92
2022/07/09 01:08:53;;;;;;;13.20;4.45;;;17.10;99.90;;;;;;4977673;28;20153;-87
2022/07/09 01:11:40;;;;;;;13.73;4.18;;;17.10;99.90;;;;;;4976568;28;20411;-88
2022/07/09 01:14:27;;;;;;;11.77;2.90;;;17.10;99.90;;;;;;4974568;28;20046;-89
2022/07/09 01:17:13;;;;;;;9.30;2.95;;;17.20;99.90;;;;;;4975187;28;20778;-89
2022/07/09 01:19:59;;;;;;;8.30;2.50;;;17.10;99.90;;;;;;4969524;28;20054;-90
2022/07/09 01:22:46;;;;;;;8.23;2.38;;;17.20;99.90;;;;;;4967819;28;20495;-86
2022/07/09 01:25:37;;;;;;;13.75;4.07;;;17.20;99.90;;;;;;4975217;28;20047;-89
2022/07/09 01:28:23;;;;;;;6.75;2.20;;;17.30;99.90;;;;;;4963417;28;20537;-88
2022/07/09 01:31:09;;;;;;;8.27;2.67;;;17.20;99.90;;;;;;5000362;28;20050;-86
2022/07/09 01:33:55;;;;;;;11.82;2.85;;;17.30;99.90;;;;;;4991894;28;20050;-87
2022/07/09 01:36:42;;;;;;;8.48;2.30;;;17.30;99.90;;;;;;4992268;28;20499;-86
2022/07/09 01:39:28;;;;;;;9.07;2.42;;;17.30;99.90;;;;;;4974644;28;20136;-86
2022/07/09 01:42:14;;;;;;;9.68;2.03;;;17.30;99.90;;;;;;4974205;28;20046;-89
2022/07/09 01:45:00;;;;;;;8.50;2.25;;;17.30;99.90;;;;;;4997869;28;20053;-89
2022/07/09 01:47:46;;;;;;;6.82;2.20;;;17.30;99.90;;;;;;4982689;28;20066;-90
2022/07/09 01:50:32;;;;;;;8.93;2.17;;;17.30;99.90;;;;;;4992649;28;20057;-92
2022/07/09 01:53:19;;;;;;;6.55;2.17;;;17.30;99.90;;;;;;4991899;28;20109;-90
2022/07/09 01:56:10;;;;;;;9.27;2.35;;;17.30;99.90;;;;;;4984017;28;20050;-89
2022/07/09 01:58:56;;;;;;;7.90;2.30;;;17.30;99.90;;;;;;4977566;28;20050;-91
2022/07/09 02:01:42;;;;;;;7.57;2.28;;;17.30;99.90;;;;;;4986441;28;20114;-87
2022/07/09 02:04:28;;;;;;;5.68;2.25;;;17.30;99.90;;;;;;4997898;28;20051;-91
2022/07/09 02:07:15;;;;;;;8.43;2.00;;;17.30;99.90;;;;;;4983352;28;20435;-90
2022/07/09 02:10:02;;;;;;;7.85;1.98;;;17.30;99.90;;;;;;4975294;28;20062;-91
2022/07/09 02:12:48;;;;;;;5.75;2.25;;;17.30;99.90;;;;;;4975864;28;20046;-90
2022/07/09 02:15:34;;;;;;;8.15;2.35;;;17.40;99.90;;;;;;4993768;28;20046;-91
2022/07/09 02:18:20;;;;;;;11.65;2.75;;;17.40;99.90;;;;;;5007833;28;20056;-90
2022/07/09 02:21:07;;;;;;;10.90;2.42;;;17.30;99.90;;;;;;4977635;28;20077;-91
2022/07/09 02:23:58;;;;;;;6.47;2.40;;;17.30;99.90;;;;;;4965191;28;20058;-93
2022/07/09 02:26:44;;;;;;;10.88;2.60;;;17.20;99.90;;;;;;4992445;28;20054;-92
2022/07/09 02:29:30;;;;;;;7.63;2.63;;;17.20;99.90;;;;;;4975524;28;20046;-91
2022/07/09 02:32:16;;;;;;;14.75;3.33;;;17.20;99.90;;;;;;4994337;28;20073;-91
2022/07/09 02:35:03;;;;;;;8.90;1.98;;;17.10;99.90;;;;;;4982342;28;20089;-91
2022/07/09 02:37:49;;;;;;;8.35;1.85;;;17.10;99.90;;;;;;4992859;28;20085;-92
2022/07/09 02:40:35;;;;;;;7.57;2.45;;;17.10;99.90;;;;;;4978320;28;20046;-91
2022/07/09 02:43:21;;;;;;;6.63;2.45;;;17.10;99.90;;;;;;4993462;28;20458;-91
2022/07/09 02:46:08;;;;;;;8.23;2.50;;;17.00;99.90;;;;;;4995082;28;20105;-89
2022/07/09 02:48:58;;;;;;;6.47;1.77;;;17.00;99.90;;;;;;5000295;28;20079;-89
2022/07/09 02:51:45;;;;;;;5.15;1.63;;;17.00;99.90;;;;;;4995334;28;20057;-91
2022/07/09 02:54:32;;;;;;;8.32;2.03;;;17.00;99.90;;;;;;4991106;28;20090;-89
2022/07/09 02:57:18;;;;;;;7.68;1.92;;;16.90;99.90;;;;;;4974929;28;20060;-90
2022/07/09 03:00:05;;;;;;;5.00;1.90;;;16.90;99.90;;;;;;4973745;28;20057;-90
2022/07/09 03:02:51;;;;;;;8.38;3.05;;;16.90;99.90;;;;;;4974389;28;20042;-90
2022/07/09 03:05:38;;;;;;;6.22;2.25;;;16.90;99.90;;;;;;4978830;28;20054;-88
2022/07/09 03:08:24;;;;;;;6.60;1.90;;;16.80;99.90;;;;;;4998812;28;20058;-91
2022/07/09 03:11:12;;;;;;;7.55;2.05;;;16.80;99.90;;;;;;4994062;28;20051;-90
2022/07/09 03:13:58;;;;;;;8.68;2.30;;;16.90;99.90;;;;;;4976215;28;20050;-90
2022/07/09 03:16:44;;;;;;;10.65;2.40;;;16.80;99.90;;;;;;4962508;28;20125;-89
2022/07/09 03:19:30;;;;;;;7.05;2.55;;;16.90;99.90;;;;;;4974887;28;20054;-89
2022/07/09 03:22:17;;;;;;;6.28;2.08;;;16.80;99.90;;;;;;4979316;28;20384;-90
2022/07/09 03:25:03;;;;;;;6.40;2.35;;;16.80;99.90;;;;;;4993505;28;20510;-89
2022/07/09 03:27:50;;;;;;;9.15;2.13;;;16.80;99.90;;;;;;5001497;28;20049;-91
2022/07/09 03:30:36;;;;;;;12.10;2.78;;;16.80;99.90;;;;;;4972951;28;20026;-87
2022/07/09 03:33:22;;;;;;;6.00;2.45;;;16.80;99.90;;;;;;5009951;28;20046;-87
2022/07/09 03:36:09;;;;;;;12.70;3.53;;;16.80;99.90;;;;;;4974720;28;20057;-90
2022/07/09 03:38:55;;;;;;;9.82;3.30;;;16.70;99.90;;;;;;4996470;28;20085;-90
2022/07/09 03:41:41;;;;;;;11.05;2.60;;;16.70;99.90;;;;;;4996671;28;20057;-89
2022/07/09 03:44:28;;;;;;;7.68;2.42;;;16.70;99.90;;;;;;5001763;28;20108;-89
2022/07/09 03:47:14;;;;;;;11.43;3.30;;;16.80;99.90;;;;;;5007314;28;20138;-89
2022/07/09 03:50:01;;;;;;;8.70;2.80;;;16.80;99.90;;;;;;4976881;28;20057;-90
2022/07/09 03:52:47;;;;;;;8.00;3.35;;;16.80;99.90;;;;;;4984360;28;20108;-90
2022/07/09 03:55:33;;;;;;;9.30;3.75;;;16.80;99.90;;;;;;4995193;28;20506;-88
2022/07/09 03:58:19;;;;;;;7.28;2.78;;;16.90;99.90;;;;;;4995382;28;20064;-89
2022/07/09 04:01:06;;;;;;;7.78;2.17;;;16.90;99.90;;;;;;4996574;28;20129;-91
2022/07/09 04:03:52;;;;;;;6.75;2.13;;;16.90;99.90;;;;;;4976744;28;20093;-90
2022/07/09 04:06:38;;;;;;;8.85;2.78;;;17.00;99.90;;;;;;4994342;28;20137;-89
2022/07/09 04:09:24;;;;;;;6.63;2.40;;;17.00;99.90;;;;;;4978561;28;20108;-90
2022/07/09 04:12:10;;;;;;;5.00;2.10;;;17.10;99.90;;;;;;4979125;28;20137;-92
2022/07/09 04:14:56;;;;;;;6.68;2.60;;;17.10;99.90;;;;;;4993857;28;20545;-90
2022/07/09 04:17:42;;;;;;;8.43;2.22;;;17.10;99.90;;;;;;4996869;28;20113;-89
2022/07/09 04:20:29;;;;;;;11.38;2.55;;;17.10;99.90;;;;;;4963478;28;20457;-88
2022/07/09 04:23:15;;;;;;;7.28;2.20;;;17.20;99.90;;;;;;4993743;28;20043;-89
2022/07/09 04:26:02;;;;;;;8.73;2.63;;;17.20;99.90;;;;;;4976919;28;20054;-90
2022/07/09 04:28:48;;;;;;;10.63;2.70;;;17.20;99.90;;;;;;4962792;28;20058;-91
2022/07/09 04:31:35;;;;;;;7.90;2.53;;;17.30;99.90;;;;;;4993899;28;20057;-91
2022/07/09 04:34:21;;;;;;;13.82;3.60;;;17.30;99.90;;;;;;4998355;28;20062;-91
2022/07/09 04:37:07;;;;;;;10.85;2.67;;;17.40;99.90;;;;;;4987246;28;20047;-89
2022/07/09 04:39:53;;;;;;;15.30;3.53;;;17.40;99.90;;;;;;4998940;28;20050;-88
2022/07/09 04:42:39;;;;;;;5.72;1.95;;;17.40;99.90;;;;;;4979234;28;20768;-89
2022/07/09 04:45:26;;;;;;;11.88;2.53;;;17.40;99.90;;;;;;4967715;28;20117;-91
2022/07/09 04:48:12;;;;;;;8.75;2.50;;;17.50;99.90;;;;;;5000021;28;20053;-90
2022/07/09 04:50:58;;;;;;;7.32;2.45;;;17.50;99.90;;;;;;4995665;28;20054;-93
2022/07/09 04:53:44;;;;;;;10.05;2.30;;;17.50;99.90;;;;;;4981722;28;20058;-89
2022/07/09 04:56:30;;;;;;;5.88;2.38;;;17.50;99.90;;;;;;4994883;28;20081;-91
2022/07/09 04:59:16;;;;;;;8.57;1.92;;;17.60;99.90;;;;;;4976214;28;20109;-91
2022/07/09 05:02:03;;;;;;;4.45;1.85;;;17.60;99.90;;;;;;4984669;28;20061;-88
2022/07/09 05:04:49;;;;;;;9.15;2.15;;;17.60;99.90;;;;;;4998950;28;20499;-89
2022/07/09 05:07:36;;;;;;;8.18;2.47;;;17.60;99.90;;;;;;4994449;28;20543;-92
2022/07/09 05:10:22;;;;;;;7.43;2.35;;;17.60;99.90;;;;;;4985379;28;20498;-91
2022/07/09 05:13:08;;;;;;;7.53;2.35;;;17.60;99.90;;;;;;4998527;28;20057;-90
2022/07/09 05:15:54;;;;;;;7.00;2.10;;;17.70;99.90;;;;;;4977688;28;20100;-91
2022/07/09 05:18:40;;;;;;;7.15;1.80;;;17.70;99.90;;;;;;4980014;28;20507;-91
2022/07/09 05:21:27;;;;;;;7.70;2.25;;;17.70;99.90;;;;;;4998288;28;20046;-91
2022/07/09 05:24:13;;;;;;;12.18;1.95;;;17.70;99.90;;;;;;4982249;28;20050;-91
2022/07/09 05:26:59;;;;;;;5.53;2.30;;;17.70;99.90;;;;;;5005338;28;20053;-89
2022/07/09 05:29:45;;;;;;;6.50;1.80;;;17.70;99.90;;;;;;5006826;28;20054;-86
2022/07/09 05:32:31;;;;;;;6.40;2.10;;;17.80;99.90;;;;;;4986285;28;20054;-80
2022/07/09 05:35:17;;;;;;;6.28;1.73;;;17.80;99.90;;;;;;5006053;28;20141;-89
2022/07/09 05:38:04;;;;;;;6.03;1.80;;;17.80;99.90;;;;;;5003015;28;20054;-87
2022/07/09 05:40:50;;;;;;;6.60;1.92;;;17.80;99.90;;;;;;5005427;28;20097;-86
2022/07/09 05:43:37;;;;;;;8.13;2.35;;;17.80;99.90;;;;;;5006345;28;20046;-83
2022/07/09 05:46:23;;;;;;;5.55;1.85;;;17.80;99.90;;;;;;5016934;28;20064;-82
2022/07/09 05:49:09;;;;;;;6.57;2.10;;;17.80;99.90;;;;;;5001645;28;20149;-83
2022/07/09 05:51:56;;;;;;;7.97;2.10;;;17.90;99.90;;;;;;5002197;28;20057;-84
2022/07/09 05:54:42;;;;;;;11.52;1.98;;;17.90;99.90;;;;;;5016563;28;20065;-81
2022/07/09 05:57:29;;;;;;;6.55;1.80;;;18.00;99.90;;;;;;5013376;28;20413;-86
2022/07/09 06:00:15;;;;;;;9.00;1.70;;;18.10;99.90;;;;;;4999615;28;20088;-85
2022/07/09 06:03:02;;;;;;;7.45;1.80;;;18.10;99.90;;;;;;4996394;28;20490;-83
2022/07/09 06:05:48;;;;;;;4.75;1.83;;;18.10;99.90;;;;;;4999876;28;20053;-86
2022/07/09 06:08:34;;;;;;;8.57;1.90;;;18.10;99.90;;;;;;4996712;28;20089;-82
2022/07/09 06:11:20;;;;;;;6.07;2.20;;;18.10;99.90;;;;;;5012567;28;20042;-82
2022/07/09 06:14:06;;;;;;;9.15;1.95;;;18.20;99.90;;;;;;5012155;28;20488;-83
2022/07/09 06:16:55;;;;;;;10.52;2.65;;;18.30;99.90;;;;;;4980766;28;20050;-83
2022/07/09 06:19:41;;;;;;;14.55;2.55;;;18.30;99.90;;;;;;5011073;28;20050;-82
2022/07/09 06:22:27;;;;;;;11.30;2.50;;;18.40;99.90;;;;;;4994704;28;20572;-81
2022/07/09 06:25:13;;;;;;;8.63;2.58;;;18.30;99.90;;;;;;4975890;28;20053;-87
2022/07/09 06:27:59;;;;;;;8.30;2.05;;;18.30;99.90;;;;;;4976409;28;20058;-86
2022/07/09 06:30:45;;;;;;;9.38;2.28;;;18.30;99.90;;;;;;4992174;28;20100;-82
2022/07/09 06:33:32;;;;;;;8.65;2.38;;;18.30;99.90;;;;;;4992032;28;20061;-82
2022/07/09 06:36:18;;;;;;;10.15;2.42;;;18.30;99.90;;;;;;4991536;28;20042;-84
2022/07/09 06:42:09;;;;;;;12.07;2.20;;;18.30;99.90;;;;;;4991671;28;20050;-83
2022/07/09 06:44:55;;;;;;;14.18;2.00;;;18.30;99.90;;;;;;4991480;28;20047;-86
2022/07/09 06:47:41;;;;;;;9.65;1.98;;;18.40;99.90;;;;;;4976457;28;20407;-83
2022/07/09 06:50:27;;;;;;;9.55;1.80;;;18.50;99.90;;;;;;4990779;28;20050;-85
2022/07/09 06:53:13;;;;;;;6.07;1.88;;;18.50;99.90;;;;;;4991812;28;20061;-82
2022/07/09 06:56:00;;;;;;;8.93;1.73;;;18.50;99.90;;;;;;4975110;28;20100;-83
2022/07/09 06:58:46;;;;;;;8.15;1.90;;;18.60;99.90;;;;;;4992865;28;20109;-81
2022/07/09 07:01:32;;;;;;;9.13;1.60;;;18.70;99.90;;;;;;4991825;28;20108;-82
2022/07/09 07:04:19;;;;;;;9.32;1.83;;;18.90;99.90;;;;;;4991469;28;20402;-81
2022/07/09 07:07:06;;;;;;;10.70;1.90;;;19.10;99.90;;;;;;4992509;28;20193;-84
2022/07/09 07:09:52;;;;;;;14.02;2.00;;;19.00;99.90;;;;;;4982864;28;20064;-86
2022/07/09 07:12:40;;;;;;;8.85;1.70;;;19.10;99.90;;;;;;4995876;28;20069;-87
2022/07/09 07:15:26;;;;;;;11.70;3.70;;;19.20;99.90;;;;;;4984082;28;20046;-82
2022/07/09 07:18:12;;;;;;;6.80;1.55;;;19.10;99.90;;;;;;4982265;28;20141;-84
2022/07/09 07:20:58;;;;;;;6.00;1.88;;;19.30;99.90;;;;;;5001269;28;20455;-82
2022/07/09 07:23:44;;;;;;;10.23;2.20;;;19.70;99.90;;;;;;4995995;28;20109;-83
2022/07/09 07:26:31;;;;;;;8.23;2.00;;;20.00;99.90;;;;;;4995521;28;20055;-83
2022/07/09 07:29:17;;;;;;;9.65;1.83;;;20.00;99.90;;;;;;4997824;28;20089;-85
2022/07/09 07:32:07;;;;;;;12.27;2.72;;;20.10;99.90;;;;;;4996968;28;20042;-84
2022/07/09 07:34:53;;;;;;;5.25;1.42;;;20.00;99.90;;;;;;4978124;28;20057;-84
2022/07/09 07:37:39;;;;;;;10.82;2.25;;;20.00;99.90;;;;;;4995983;28;20513;-77
2022/07/09 07:40:25;;;;;;;8.73;1.73;;;19.80;99.90;;;;;;4977514;28;20077;-85
2022/07/09 07:43:12;;;;;;;7.75;1.90;;;19.70;99.90;;;;;;4993663;28;20142;-83
2022/07/09 07:45:58;;;;;;;10.07;2.13;;;19.80;99.90;;;;;;4978308;28;20127;-81
2022/07/09 07:48:44;;;;;;;8.73;1.90;;;20.10;99.90;;;;;;4980218;28;20359;-77
2022/07/09 07:51:39;;;;;;;9.10;2.22;;;20.10;99.90;;;;;;4982239;28;20046;-81
2022/07/09 07:54:26;;;;;;;10.75;2.05;;;19.90;99.90;;;;;;5001935;28;20050;-77
2022/07/09 07:57:12;;;;;;;7.95;1.70;;;19.90;99.90;;;;;;4994393;28;20108;-79
2022/07/09 07:59:59;;;;;;;8.05;1.92;;;19.80;99.90;;;;;;4977828;28;20058;-83
2022/07/09 08:02:45;;;;;;;9.82;2.05;;;20.00;99.90;;;;;;4979382;28;20070;-84
2022/07/09 08:05:32;;;;;;;7.90;1.58;;;20.20;99.90;;;;;;4999842;28;20730;-83
2022/07/09 08:08:21;;;;;;;9.40;2.10;;;20.00;99.90;;;;;;4998232;28;20105;-81
2022/07/09 08:11:07;;;;;;;7.07;1.73;;;20.20;99.90;;;;;;4983586;28;20058;-82
2022/07/09 08:13:54;;;;;;;8.85;2.03;;;20.30;99.90;;;;;;4979223;28;20054;-85
2022/07/09 08:16:41;;;;;;;9.77;1.95;;;20.10;99.90;;;;;;4996212;28;20050;-84
2022/07/09 08:19:27;;;;;;;7.97;1.58;;;20.10;99.90;;;;;;4994257;28;20100;-85
2022/07/09 08:22:13;;;;;;;11.85;2.25;;;20.20;99.90;;;;;;4994960;28;20046;-88
2022/07/09 08:24:59;;;;;;;10.65;2.10;;;20.30;99.90;;;;;;4978452;28;20502;-81
2022/07/09 08:27:45;;;;;;;10.23;2.20;;;20.40;99.90;;;;;;4996621;28;20069;-80
2022/07/09 08:30:32;;;;;;;10.07;2.05;;;20.30;99.90;;;;;;4995306;28;20494;-85
2022/07/09 08:33:18;;;;;;;9.43;1.90;;;20.50;99.90;;;;;;4994510;28;20050;-82
2022/07/09 08:36:05;;;;;;;8.60;2.00;;;20.70;99.90;;;;;;4976291;28;20046;-82
2022/07/09 08:38:51;;;;;;;9.65;1.83;;;20.90;99.90;;;;;;4996337;28;20062;-80
2022/07/09 08:41:38;;;;;;;9.18;1.90;;;21.50;99.90;;;;;;5001599;28;20068;-77
2022/07/09 08:44:29;;;;;;;8.15;2.47;;;21.60;99.90;;;;;;4996570;28;20046;-83
2022/07/09 08:47:15;;;;;;;10.18;2.08;;;21.80;99.90;;;;;;4993695;28;20053;-83
2022/07/09 08:50:02;;;;;;;7.20;2.00;;;21.90;99.90;;;;;;4992527;28;20054;-82
2022/07/09 08:52:51;;;;;;;10.02;1.67;;;21.80;99.90;;;;;;4995712;28;20509;-90
2022/07/09 08:55:37;;;;;;;7.13;1.90;;;21.80;99.90;;;;;;5001135;28;20137;-80
2022/07/09 08:58:24;;;;;;;10.75;2.17;;;21.70;99.90;;;;;;4975315;28;20124;-84
2022/07/09 09:01:15;;;;;;;10.38;1.75;;;21.80;99.90;;;;;;4982349;28;20137;-81
2022/07/09 09:04:01;;;;;;;7.70;2.10;;;21.90;99.90;;;;;;4996442;28;20050;-86
2022/07/09 09:06:48;;;;;;;13.35;2.28;;;21.90;99.90;;;;;;4978382;28;20500;-86
2022/07/09 09:09:36;;;;;;;11.38;2.10;;;22.20;99.90;;;;;;4977833;28;20418;-86
2022/07/09 09:12:28;;;;;;;12.68;2.15;;;22.10;99.90;;;;;;4991435;28;20058;-88
2022/07/09 09:15:18;;;;;;;7.28;1.80;;;22.00;99.90;;;;;;4993305;28;20051;-89
2022/07/09 09:18:05;;;;;;;10.52;2.38;;;21.70;99.90;;;;;;4976310;28;20058;-81
2022/07/09 09:20:51;;;;;;;10.68;2.38;;;21.60;99.90;;;;;;4979676;28;20042;-82
2022/07/09 09:23:47;;;;;;;12.13;1.70;;;21.80;99.90;;;;;;4992941;28;20561;-86
2022/07/09 09:26:35;;;;;;;7.50;2.40;;;22.00;99.90;;;;;;4996322;28;20461;-88
2022/07/09 09:29:21;;;;;;;8.68;2.65;;;22.00;99.90;;;;;;4995199;28;20046;-85
2022/07/09 09:32:11;;;;;;;8.00;2.00;;;22.20;99.90;;;;;;4993078;28;20046;-91
2022/07/09 09:35:03;;;;;;;9.55;1.20;;;21.70;99.90;;;;;;5002444;28;20062;-92
2022/07/09 09:37:51;;;;;;;6.78;1.70;;;21.30;99.90;;;;;;5003490;28;20070;-92
2022/07/09 09:40:37;;;;;;;5.53;1.38;;;20.90;99.90;;;;;;5002896;28;20050;-90
2022/07/09 09:43:24;;;;;;;10.07;1.88;;;20.40;99.90;;;;;;5001090;28;20085;-89
2022/07/09 09:46:11;;;;;;;6.78;1.63;;;20.10;99.90;;;;;;4997184;28;20073;-90
2022/07/09 09:48:57;;;;;;;5.72;1.50;;;19.90;99.90;;;;;;4994915;28;20050;-88
2022/07/09 09:51:50;;;;;;;8.27;1.90;;;19.70;99.90;;;;;;4999029;28;20049;-86
2022/07/09 09:54:39;;;;;;;11.73;2.22;;;19.50;99.90;;;;;;5000174;28;20085;-86
2022/07/09 09:57:27;;;;;;;9.60;1.75;;;19.40;99.90;;;;;;4987909;28;20112;-88
2022/07/09 10:00:15;;;;;;;10.82;2.25;;;19.50;99.90;;;;;;5002536;28;20049;-89
2022/07/09 10:03:02;;;;;;;6.18;1.42;;;19.50;99.90;;;;;;4981412;28;20042;-87
2022/07/09 10:05:50;;;;;;;9.82;2.08;;;19.50;99.90;;;;;;4980956;28;20073;-89
2022/07/09 10:08:36;;;;;;;8.48;1.55;;;19.60;99.90;;;;;;5025870;28;20058;-88
2022/07/09 10:11:23;;;;;;;12.75;2.15;;;19.70;99.90;;;;;;5015812;28;20056;-87
2022/07/09 10:14:39;;;;;;;12.27;1.92;;;19.80;99.90;;;;;;4999252;28;20054;-87
2022/07/09 10:17:26;;;;;;;10.73;2.17;;;20.10;99.90;;;;;;4982952;28;20045;-89
2022/07/09 10:20:12;;;;;;;7.40;1.42;;;20.40;99.90;;;;;;4999512;28;20065;-90
2022/07/09 10:22:59;;;;;;;6.13;1.48;;;20.50;99.90;;;;;;5001165;28;20140;-89
2022/07/09 10:25:46;;;;;;;11.00;2.25;;;20.60;99.90;;;;;;4995834;28;20053;-91
2022/07/09 10:28:41;;;;;;;6.88;1.52;;;20.80;99.90;;;;;;4982828;28;20076;-88
2022/07/09 10:31:30;;;;;;;8.32;1.42;;;21.30;99.90;;;;;;4984608;28;20520;-92
2022/07/09 10:34:48;;;;;;;8.18;2.38;;;21.60;99.90;;;;;;5011912;28;20490;-87
2022/07/09 10:37:41;;;;;;;7.65;1.33;;;21.90;99.90;;;;;;5011260;28;20523;-88
2022/07/09 10:40:44;;;;;;;8.43;1.25;;;22.10;99.90;;;;;;5013905;28;20057;-88
2022/07/09 10:43:49;;;;;;;7.40;1.55;;;22.50;98.80;;;;;;5011022;28;20050;-88
2022/07/09 10:46:37;;;;;;;7.35;1.30;;;22.50;98.10;;;;;;4994578;28;20088;-89
2022/07/09 10:49:26;;;;;;;4.82;0.80;;;22.50;97.70;;;;;;4996966;28;20054;-89
2022/07/09 10:52:16;;;;;;;6.03;1.48;;;22.40;96.50;;;;;;4996339;28;20058;-91
2022/07/09 10:55:04;;;;;;;8.18;1.20;;;22.30;96.80;;;;;;5002326;28;20053;-90
2022/07/09 10:57:51;;;;;;;8.48;1.30;;;22.40;96.80;;;;;;5002025;28;20450;-89
2022/07/09 11:00:38;;;;;;;4.28;0.93;;;22.30;97.00;;;;;;5016444;28;20050;-82
2022/07/09 11:03:26;;;;;;;7.68;1.35;;;22.20;96.40;;;;;;5020875;28;20050;-90
2022/07/09 11:06:13;;;;;;;5.55;1.27;;;22.40;96.80;;;;;;5009149;28;20054;-91
2022/07/09 11:09:00;;;;;;;12.10;1.75;;;22.60;96.50;;;;;;5005956;28;20193;-87
2022/07/09 11:11:49;;;;;;;10.77;1.83;;;22.20;96.80;;;;;;4986758;28;20074;-86
2022/07/09 11:14:46;;;;;;;9.63;1.60;;;22.40;96.90;;;;;;5001528;28;20065;-88
2022/07/09 11:17:32;;;;;;;6.15;1.45;;;22.30;95.90;;;;;;4994652;28;20132;-86
2022/07/09 11:20:19;;;;;;;6.18;1.40;;;22.30;96.40;;;;;;4993798;28;20042;-86
2022/07/09 11:23:06;;;;;;;4.70;1.13;;;22.50;96.50;;;;;;4979061;28;20513;-88
2022/07/09 11:25:52;;;;;;;3.88;1.00;;;23.00;96.20;;;;;;4994409;28;20061;-86
2022/07/09 11:28:38;;;;;;;5.47;1.20;;;23.20;95.50;;;;;;4980492;28;20524;-87
2022/07/09 11:31:25;;;;;;;6.32;1.42;;;23.30;95.90;;;;;;5011681;28;20046;-86
2022/07/09 11:34:12;;;;;;;5.50;1.00;;;23.00;95.10;;;;;;5010913;28;20080;-84
2022/07/09 11:36:59;;;;;;;4.55;1.02;;;23.00;95.40;;;;;;5011111;28;20046;-84
2022/07/09 11:39:53;;;;;;;6.18;1.10;;;22.90;95.10;;;;;;5010891;28;20141;-87
2022/07/09 11:42:43;;;;;;;5.20;1.15;;;23.00;94.80;;;;;;4994065;28;20048;-84
2022/07/09 11:45:30;;;;;;;4.85;1.00;;;23.20;93.30;;;;;;5010197;28;20144;-86
2022/07/09 11:48:16;;;;;;;5.15;0.90;;;23.50;93.20;;;;;;5011355;28;20398;-86
2022/07/09 11:51:02;;;;;;;2.15;0.75;;;23.80;93.80;;;;;;5011907;28;20064;-85
2022/07/09 11:53:51;;;;;;;3.88;0.88;;;23.90;93.20;;;;;;5000443;28;20054;-83
2022/07/09 11:56:45;;;;;;;18.67;1.70;;;23.70;92.20;;;;;;4983673;28;20525;-80
2022/07/09 11:59:31;;;;;;;6.90;1.60;;;23.90;91.20;;;;;;4996842;28;20079;-80
2022/07/09 12:02:44;;;;;;;5.57;1.00;;;23.80;92.60;;;;;;4998219;28;20057;-84
2022/07/09 12:05:39;;;;;;;5.65;1.38;;;23.90;91.20;;;;;;4996172;28;20410;-85
2022/07/09 12:08:30;;;;;;;6.85;1.85;;;23.80;91.90;;;;;;5000445;28;20050;-87
2022/07/09 12:11:26;;;;;;;5.55;1.00;;;24.00;91.80;;;;;;5001809;28;20042;-84
2022/07/09 12:14:13;;;;;;;5.55;1.13;;;23.50;90.90;;;;;;4998817;28;20057;-82
2022/07/09 12:16:59;;;;;;;3.33;0.82;;;23.90;91.40;;;;;;4995986;28;20049;-82
2022/07/09 12:19:45;;;;;;;4.43;0.82;;;23.90;90.70;;;;;;5014373;28;20049;-78
2022/07/09 12:22:32;;;;;;;7.05;1.08;;;24.00;91.00;;;;;;4998687;28;20575;-83
2022/07/09 12:25:19;;;;;;;5.00;1.33;;;24.30;90.60;;;;;;5014045;28;20046;-87
2022/07/09 12:28:05;;;;;;;5.53;1.00;;;24.30;90.80;;;;;;5016368;28;20109;-81
2022/07/09 12:30:51;;;;;;;12.02;1.52;;;24.40;90.50;;;;;;4999904;28;20080;-79
2022/07/09 12:33:38;;;;;;;4.72;1.00;;;24.10;90.60;;;;;;5016931;28;20050;-81
2022/07/09 12:36:24;;;;;;;6.20;0.80;;;24.40;90.50;;;;;;5012808;28;20054;-80
2022/07/09 12:39:10;;;;;;;4.45;1.02;;;24.60;89.70;;;;;;5013235;28;20061;-85
2022/07/09 12:41:58;;;;;;;4.82;0.70;;;24.40;88.00;;;;;;5014524;28;20070;-84
2022/07/09 12:44:44;;;;;;;3.13;0.75;;;24.30;87.00;;;;;;5001030;28;20056;-88
2022/07/09 12:47:30;;;;;;;5.72;0.90;;;24.00;89.40;;;;;;5024755;28;20050;-87
2022/07/09 12:50:35;;;;;;;6.75;1.10;;;23.80;90.70;;;;;;5019105;28;20521;-84
2022/07/09 12:53:21;;;;;;;4.75;0.95;;;24.00;90.90;;;;;;5000938;28;20054;-85
2022/07/09 12:56:07;;;;;;;7.90;1.45;;;24.00;90.50;;;;;;5004358;28;20509;-82
2022/07/09 12:58:53;;;;;;;9.65;1.10;;;23.80;90.40;;;;;;5018261;28;20083;-82
2022/07/09 13:01:40;;;;;;;7.70;1.02;;;23.30;90.50;;;;;;4996451;28;20050;-86
2022/07/09 13:04:26;;;;;;;5.95;1.17;;;23.40;91.50;;;;;;4982684;28;20060;-82
2022/07/09 13:07:13;;;;;;;8.40;1.20;;;23.80;92.00;;;;;;4983244;28;20116;-85
2022/07/09 13:09:59;;;;;;;4.93;0.93;;;24.10;91.30;;;;;;5002756;28;20054;-84
2022/07/09 13:12:47;;;;;;;7.85;1.00;;;23.80;91.30;;;;;;5019343;28;20409;-82
2022/07/09 13:15:33;;;;;;;6.15;0.95;;;23.40;91.70;;;;;;5016010;28;20068;-76
2022/07/09 13:22:20;;;;;;;4.60;1.25;;;22.60;92.80;;;;;;5014829;28;20059;-82
2022/07/09 13:25:07;;;;;;;3.90;1.02;;;22.20;94.10;;;;;;5015018;28;20176;-82
2022/07/09 13:27:56;;;;;;;7.43;1.27;;;21.70;94.30;;;;;;5015510;28;20076;-87
2022/07/09 13:30:43;;;;;;;7.47;1.58;;;21.40;95.10;;;;;;5022038;28;20494;-82
2022/07/09 13:33:29;;;;;;;7.72;1.42;;;21.20;96.20;;;;;;5001069;28;20061;-84
2022/07/09 13:36:16;;;;;;;6.65;1.42;;;21.20;96.80;;;;;;5013773;28;20042;-83
2022/07/09 13:39:02;;;;;;;8.93;1.48;;;21.20;97.00;;;;;;4983424;28;20521;-83
2022/07/09 13:41:48;;;;;;;6.15;1.20;;;21.40;96.50;;;;;;4996271;28;20132;-83
2022/07/09 13:44:34;;;;;;;10.05;1.70;;;21.60;96.50;;;;;;5014362;28;20836;-84
2022/07/09 13:47:21;;;;;;;12.85;1.60;;;21.10;96.40;;;;;;5014005;28;20441;-78
2022/07/09 13:50:07;;;;;;;7.07;1.20;;;21.10;96.60;;;;;;5013511;28;20103;-82
2022/07/09 13:52:53;;;;;;;39.08;6.53;;;21.60;95.70;;;;;;4997735;28;20575;-82
2022/07/09 13:55:40;;;;;;;37.78;4.28;;;21.80;95.30;;;;;;4997975;28;20057;-83
2022/07/09 13:58:26;;;;;;;12.48;1.50;;;21.90;95.10;;;;;;5011923;28;20061;-81
2022/07/09 14:01:12;;;;;;;11.73;1.17;;;22.30;94.60;;;;;;4994043;28;20092;-83
2022/07/09 14:03:59;;;;;;;9.52;1.70;;;22.90;94.00;;;;;;4981338;28;20062;-80
2022/07/09 14:06:45;;;;;;;6.10;1.45;;;23.00;93.40;;;;;;4993132;28;20113;-84
2022/07/09 14:09:31;;;;;;;5.30;0.98;;;23.00;92.50;;;;;;4994133;28;20053;-88
2022/07/09 14:12:17;;;;;;;7.18;0.93;;;23.30;91.90;;;;;;4976789;28;20050;-83
2022/07/09 14:15:05;;;;;;;9.50;1.15;;;24.00;90.20;;;;;;4997818;28;20766;-84
2022/07/09 14:17:51;;;;;;;5.13;1.23;;;24.70;90.60;;;;;;4963084;28;20061;-82
2022/07/09 14:20:37;;;;;;;6.05;0.70;;;25.00;90.00;;;;;;4992555;28;20461;-84
2022/07/09 14:23:23;;;;;;;4.93;0.90;;;25.10;86.20;;;;;;4994018;28;20150;-87
2022/07/09 14:26:09;;;;;;;6.15;1.38;;;25.60;87.00;;;;;;5011042;28;20136;-84
2022/07/09 14:28:56;;;;;;;6.88;1.20;;;25.50;85.80;;;;;;4980238;28;20061;-84
2022/07/09 14:31:42;;;;;;;5.43;0.95;;;25.80;84.90;;;;;;5011652;28;20053;-83
2022/07/09 14:34:28;;;;;;;8.38;1.10;;;25.30;83.20;;;;;;4993699;28;20064;-88